sensor_id;sensor_type;location;lat;lon;timestamp;temperature;humidity
1359;DHT22;673;48.098;14.422;2024-01-16T00:00:58;-0.70;99.90
1359;DHT22;673;48.098;14.422;2024-01-16T00:03:26;-0.70;99.90
1359;DHT22;673;48.098;14.422;2024-01-16T00:05:53;-0.70;99.90
1359;DHT22;673;48.098;14.422;2024-01-16T00:08:20;-0.70;99.90
1359;DHT22;673;48.098;14.422;2024-01-16T00:10:47;-0.70;99.90
1359;DHT22;673;48.098;14.422;2024-01-16T00:13:14;-0.70;99.90
1359;DHT22;673;48.098;14.422;2024-01-16T00:15:40;-0.70;99.90
1359;DHT22;673;48.098;14.422;2024-01-16T00:18:08;-0.70;99.90
1359;DHT22;673;48.098;14.422;2024-01-16T00:20:36;-0.60;99.90
1359;DHT22;673;48.098;14.422;2024-01-16T00:23:03;-0.70;99.90
1359;DHT22;673;48.098;14.422;2024-01-16T00:25:30;-0.80;99.90
1359;DHT22;673;48.098;14.422;2024-01-16T00:27:57;-0.70;99.90
1359;DHT22;673;48.098;14.422;2024-01-16T00:30:24;-0.70;99.90
1359;DHT22;673;48.098;14.422;2024-01-16T00:32:51;-0.70;99.90
1359;DHT22;673;48.098;14.422;2024-01-16T00:35:18;-0.70;99.90
1359;DHT22;673;48.098;14.422;2024-01-16T00:37:46;-0.70;99.90
1359;DHT22;673;48.098;14.422;2024-01-16T00:40:13;-0.70;99.90
1359;DHT22;673;48.098;14.422;2024-01-16T00:42:40;-0.80;99.90
1359;DHT22;673;48.098;14.422;2024-01-16T00:45:08;-0.70;99.90
1359;DHT22;673;48.098;14.422;2024-01-16T00:47:35;-0.70;99.90
1359;DHT22;673;48.098;14.422;2024-01-16T00:50:02;-0.70;99.90
1359;DHT22;673;48.098;14.422;2024-01-16T00:52:29;-0.70;99.90
1359;DHT22;673;48.098;14.422;2024-01-16T00:54:57;-0.80;99.90
1359;DHT22;673;48.098;14.422;2024-01-16T00:57:24;-0.70;99.90
1359;DHT22;673;48.098;14.422;2024-01-16T00:59:51;-0.70;99.90
1359;DHT22;673;48.098;14.422;2024-01-16T01:02:18;-0.70;99.90
1359;DHT22;673;48.098;14.422;2024-01-16T01:04:45;-0.70;99.90
1359;DHT22;673;48.098;14.422;2024-01-16T01:07:13;-0.70;99.90
1359;DHT22;673;48.098;14.422;2024-01-16T01:09:41;-0.70;99.90
1359;DHT22;673;48.098;14.422;2024-01-16T01:12:09;-0.60;99.90
1359;DHT22;673;48.098;14.422;2024-01-16T01:14:36;-0.60;99.90
1359;DHT22;673;48.098;14.422;2024-01-16T01:17:03;-0.60;99.90
1359;DHT22;673;48.098;14.422;2024-01-16T01:19:31;-0.70;99.90
1359;DHT22;673;48.098;14.422;2024-01-16T01:21:57;-0.60;99.90
1359;DHT22;673;48.098;14.422;2024-01-16T01:24:24;-0.60;99.90
1359;DHT22;673;48.098;14.422;2024-01-16T01:26:51;-0.60;99.90
1359;DHT22;673;48.098;14.422;2024-01-16T01:29:20;-0.70;99.90
1359;DHT22;673;48.098;14.422;2024-01-16T01:31:46;-0.60;99.90
1359;DHT22;673;48.098;14.422;2024-01-16T01:34:14;-0.70;99.90
1359;DHT22;673;48.098;14.422;2024-01-16T01:36:41;-0.70;99.90
1359;DHT22;673;48.098;14.422;2024-01-16T01:39:09;-0.70;99.90
1359;DHT22;673;48.098;14.422;2024-01-16T01:41:37;-0.60;99.90
1359;DHT22;673;48.098;14.422;2024-01-16T01:44:03;-0.60;99.90
1359;DHT22;673;48.098;14.422;2024-01-16T01:46:33;-0.70;99.90
1359;DHT22;673;48.098;14.422;2024-01-16T01:49:04;-0.60;99.90
1359;DHT22;673;48.098;14.422;2024-01-16T01:51:31;-0.70;99.90
1359;DHT22;673;48.098;14.422;2024-01-16T01:54:00;-0.70;99.90
1359;DHT22;673;48.098;14.422;2024-01-16T01:56:27;-0.70;99.90
1359;DHT22;673;48.098;14.422;2024-01-16T01:58:56;-0.70;99.90
1359;DHT22;673;48.098;14.422;2024-01-16T02:01:24;-0.70;99.90
1359;DHT22;673;48.098;14.422;2024-01-16T02:03:55;-0.70;99.90
1359;DHT22;673;48.098;14.422;2024-01-16T02:06:22;-0.80;99.90
1359;DHT22;673;48.098;14.422;2024-01-16T02:08:49;-0.70;99.90
1359;DHT22;673;48.098;14.422;2024-01-16T02:11:16;-0.70;99.90
1359;DHT22;673;48.098;14.422;2024-01-16T02:13:43;-0.80;99.90
1359;DHT22;673;48.098;14.422;2024-01-16T02:16:20;-0.70;99.90
1359;DHT22;673;48.098;14.422;2024-01-16T02:18:48;-0.70;99.90
1359;DHT22;673;48.098;14.422;2024-01-16T02:21:18;-0.70;99.90
1359;DHT22;673;48.098;14.422;2024-01-16T02:23:48;-0.70;99.90
1359;DHT22;673;48.098;14.422;2024-01-16T02:26:16;-0.80;99.90
1359;DHT22;673;48.098;14.422;2024-01-16T02:28:43;-0.70;99.90
1359;DHT22;673;48.098;14.422;2024-01-16T02:31:11;-0.70;99.90
1359;DHT22;673;48.098;14.422;2024-01-16T02:33:38;-0.70;99.90
1359;DHT22;673;48.098;14.422;2024-01-16T02:36:05;-0.70;99.90
1359;DHT22;673;48.098;14.422;2024-01-16T02:38:32;-0.70;99.90
1359;DHT22;673;48.098;14.422;2024-01-16T02:41:01;-0.70;99.90
1359;DHT22;673;48.098;14.422;2024-01-16T02:43:28;-0.70;99.90
1359;DHT22;673;48.098;14.422;2024-01-16T02:45:55;-0.70;99.90
1359;DHT22;673;48.098;14.422;2024-01-16T02:48:21;-0.70;99.90
1359;DHT22;673;48.098;14.422;2024-01-16T02:50:48;-0.70;99.90
1359;DHT22;673;48.098;14.422;2024-01-16T02:53:15;-0.70;99.90
1359;DHT22;673;48.098;14.422;2024-01-16T02:55:42;-0.70;99.90
1359;DHT22;673;48.098;14.422;2024-01-16T02:58:11;-0.70;99.90
1359;DHT22;673;48.098;14.422;2024-01-16T03:00:38;-0.70;99.90
1359;DHT22;673;48.098;14.422;2024-01-16T03:03:05;-0.70;99.90
1359;DHT22;673;48.098;14.422;2024-01-16T03:05:32;-0.70;99.90
1359;DHT22;673;48.098;14.422;2024-01-16T03:07:58;-0.70;99.90
1359;DHT22;673;48.098;14.422;2024-01-16T03:10:26;-0.70;99.90
1359;DHT22;673;48.098;14.422;2024-01-16T03:12:53;-0.80;99.90
1359;DHT22;673;48.098;14.422;2024-01-16T03:15:21;-0.80;99.90
1359;DHT22;673;48.098;14.422;2024-01-16T03:17:48;-0.80;99.90
1359;DHT22;673;48.098;14.422;2024-01-16T03:20:16;-0.80;99.90
1359;DHT22;673;48.098;14.422;2024-01-16T03:22:43;-0.80;99.90
1359;DHT22;673;48.098;14.422;2024-01-16T03:25:10;-0.80;99.90
1359;DHT22;673;48.098;14.422;2024-01-16T03:27:38;-0.80;99.90
1359;DHT22;673;48.098;14.422;2024-01-16T03:30:06;-0.80;99.90
1359;DHT22;673;48.098;14.422;2024-01-16T03:32:35;-0.70;99.90
1359;DHT22;673;48.098;14.422;2024-01-16T03:35:02;-0.80;99.90
1359;DHT22;673;48.098;14.422;2024-01-16T03:37:29;-0.80;99.90
1359;DHT22;673;48.098;14.422;2024-01-16T03:39:56;-0.80;99.90
1359;DHT22;673;48.098;14.422;2024-01-16T03:42:24;-0.80;99.90
1359;DHT22;673;48.098;14.422;2024-01-16T03:44:51;-0.80;99.90
1359;DHT22;673;48.098;14.422;2024-01-16T03:47:18;-0.80;99.90
1359;DHT22;673;48.098;14.422;2024-01-16T03:49:47;-0.90;99.90
1359;DHT22;673;48.098;14.422;2024-01-16T03:52:14;-0.80;99.90
1359;DHT22;673;48.098;14.422;2024-01-16T03:54:41;-0.80;99.90
1359;DHT22;673;48.098;14.422;2024-01-16T03:57:08;-0.90;99.90
1359;DHT22;673;48.098;14.422;2024-01-16T03:59:37;-0.80;99.90
1359;DHT22;673;48.098;14.422;2024-01-16T04:02:04;-0.90;99.90
1359;DHT22;673;48.098;14.422;2024-01-16T04:04:31;-0.80;99.90
1359;DHT22;673;48.098;14.422;2024-01-16T04:07:00;-0.80;99.90
1359;DHT22;673;48.098;14.422;2024-01-16T04:09:27;-0.80;99.90
1359;DHT22;673;48.098;14.422;2024-01-16T04:11:53;-0.80;99.90
1359;DHT22;673;48.098;14.422;2024-01-16T04:14:20;-0.80;99.90
1359;DHT22;673;48.098;14.422;2024-01-16T04:16:48;-0.80;99.90
1359;DHT22;673;48.098;14.422;2024-01-16T04:19:15;-0.80;99.90
1359;DHT22;673;48.098;14.422;2024-01-16T04:21:42;-0.80;99.90
1359;DHT22;673;48.098;14.422;2024-01-16T04:24:10;-0.80;99.90
1359;DHT22;673;48.098;14.422;2024-01-16T04:26:37;-0.80;99.90
1359;DHT22;673;48.098;14.422;2024-01-16T04:29:04;-0.80;99.90
1359;DHT22;673;48.098;14.422;2024-01-16T04:31:32;-0.90;99.80
1359;DHT22;673;48.098;14.422;2024-01-16T04:33:59;-0.90;99.80
1359;DHT22;673;48.098;14.422;2024-01-16T04:36:26;-0.90;99.50
1359;DHT22;673;48.098;14.422;2024-01-16T04:38:53;-0.90;99.20
1359;DHT22;673;48.098;14.422;2024-01-16T04:41:21;-0.90;99.40
1359;DHT22;673;48.098;14.422;2024-01-16T04:43:48;-0.90;99.30
1359;DHT22;673;48.098;14.422;2024-01-16T04:46:16;-0.90;98.90
1359;DHT22;673;48.098;14.422;2024-01-16T04:48:43;-0.90;99.00
1359;DHT22;673;48.098;14.422;2024-01-16T04:51:12;-0.80;98.50
1359;DHT22;673;48.098;14.422;2024-01-16T04:53:39;-0.80;99.10
1359;DHT22;673;48.098;14.422;2024-01-16T04:56:07;-0.90;99.20
1359;DHT22;673;48.098;14.422;2024-01-16T04:58:35;-0.80;99.20
1359;DHT22;673;48.098;14.422;2024-01-16T05:01:02;-0.80;98.60
1359;DHT22;673;48.098;14.422;2024-01-16T05:03:29;-0.80;98.60
1359;DHT22;673;48.098;14.422;2024-01-16T05:05:56;-0.80;98.20
1359;DHT22;673;48.098;14.422;2024-01-16T05:08:23;-0.70;97.80
1359;DHT22;673;48.098;14.422;2024-01-16T05:10:50;-0.80;97.90
1359;DHT22;673;48.098;14.422;2024-01-16T05:13:16;-0.80;97.60
1359;DHT22;673;48.098;14.422;2024-01-16T05:15:45;-0.80;98.20
1359;DHT22;673;48.098;14.422;2024-01-16T05:18:12;-0.80;97.80
1359;DHT22;673;48.098;14.422;2024-01-16T05:20:39;-0.80;98.00
1359;DHT22;673;48.098;14.422;2024-01-16T05:23:06;-0.80;97.50
1359;DHT22;673;48.098;14.422;2024-01-16T05:25:33;-0.80;97.70
1359;DHT22;673;48.098;14.422;2024-01-16T05:28:00;-0.80;97.80
1359;DHT22;673;48.098;14.422;2024-01-16T05:30:27;-0.80;97.50
1359;DHT22;673;48.098;14.422;2024-01-16T05:32:55;-0.80;96.70
1359;DHT22;673;48.098;14.422;2024-01-16T05:35:26;-0.70;96.80
1359;DHT22;673;48.098;14.422;2024-01-16T05:37:53;-0.70;96.30
1359;DHT22;673;48.098;14.422;2024-01-16T05:40:21;-0.70;95.90
1359;DHT22;673;48.098;14.422;2024-01-16T05:42:48;-0.70;96.10
1359;DHT22;673;48.098;14.422;2024-01-16T05:45:15;-0.70;96.00
1359;DHT22;673;48.098;14.422;2024-01-16T05:47:42;-0.70;96.40
1359;DHT22;673;48.098;14.422;2024-01-16T05:50:10;-0.70;96.00
1359;DHT22;673;48.098;14.422;2024-01-16T05:52:37;-0.70;96.00
1359;DHT22;673;48.098;14.422;2024-01-16T05:55:06;-0.70;95.90
1359;DHT22;673;48.098;14.422;2024-01-16T05:57:34;-0.70;96.10
1359;DHT22;673;48.098;14.422;2024-01-16T06:00:02;-0.70;96.40
1359;DHT22;673;48.098;14.422;2024-01-16T06:02:29;-0.70;96.60
1359;DHT22;673;48.098;14.422;2024-01-16T06:04:56;-0.80;97.00
1359;DHT22;673;48.098;14.422;2024-01-16T06:07:24;-0.70;96.60
1359;DHT22;673;48.098;14.422;2024-01-16T06:09:51;-0.80;97.40
1359;DHT22;673;48.098;14.422;2024-01-16T06:12:18;-0.80;96.50
1359;DHT22;673;48.098;14.422;2024-01-16T06:14:45;-0.70;96.60
1359;DHT22;673;48.098;14.422;2024-01-16T06:17:12;-0.70;96.80
1359;DHT22;673;48.098;14.422;2024-01-16T06:19:39;-0.70;95.90
1359;DHT22;673;48.098;14.422;2024-01-16T06:22:06;-0.70;95.50
1359;DHT22;673;48.098;14.422;2024-01-16T06:24:35;-0.70;95.60
1359;DHT22;673;48.098;14.422;2024-01-16T06:27:04;-0.70;95.10
1359;DHT22;673;48.098;14.422;2024-01-16T06:29:31;-0.70;95.10
1359;DHT22;673;48.098;14.422;2024-01-16T06:31:58;-0.70;95.60
1359;DHT22;673;48.098;14.422;2024-01-16T06:34:25;-0.70;95.40
1359;DHT22;673;48.098;14.422;2024-01-16T06:36:52;-0.70;94.50
1359;DHT22;673;48.098;14.422;2024-01-16T06:39:19;-0.70;93.80
1359;DHT22;673;48.098;14.422;2024-01-16T06:41:48;-0.70;94.10
1359;DHT22;673;48.098;14.422;2024-01-16T06:44:15;-0.70;94.30
1359;DHT22;673;48.098;14.422;2024-01-16T06:46:41;-0.80;95.20
1359;DHT22;673;48.098;14.422;2024-01-16T06:49:08;-0.80;94.30
1359;DHT22;673;48.098;14.422;2024-01-16T06:51:35;-0.80;94.00
1359;DHT22;673;48.098;14.422;2024-01-16T06:54:02;-0.90;94.40
1359;DHT22;673;48.098;14.422;2024-01-16T06:56:30;-0.90;94.40
1359;DHT22;673;48.098;14.422;2024-01-16T06:58:58;-0.90;94.60
1359;DHT22;673;48.098;14.422;2024-01-16T07:01:26;-0.90;94.20
1359;DHT22;673;48.098;14.422;2024-01-16T07:03:53;-0.90;94.80
1359;DHT22;673;48.098;14.422;2024-01-16T07:06:20;-0.90;94.80
1359;DHT22;673;48.098;14.422;2024-01-16T07:08:47;-0.80;94.60
1359;DHT22;673;48.098;14.422;2024-01-16T07:11:14;-0.80;94.90
1359;DHT22;673;48.098;14.422;2024-01-16T07:13:41;-0.80;95.40
1359;DHT22;673;48.098;14.422;2024-01-16T07:16:11;-0.80;94.70
1359;DHT22;673;48.098;14.422;2024-01-16T07:18:38;-0.70;94.80
1359;DHT22;673;48.098;14.422;2024-01-16T07:21:16;-0.80;94.90
1359;DHT22;673;48.098;14.422;2024-01-16T07:23:43;-0.70;95.00
1359;DHT22;673;48.098;14.422;2024-01-16T07:26:10;-0.70;95.30
1359;DHT22;673;48.098;14.422;2024-01-16T07:28:37;-0.80;95.50
1359;DHT22;673;48.098;14.422;2024-01-16T07:31:04;-0.80;95.70
1359;DHT22;673;48.098;14.422;2024-01-16T07:33:33;-0.70;95.50
1359;DHT22;673;48.098;14.422;2024-01-16T07:36:00;-0.70;95.50
1359;DHT22;673;48.098;14.422;2024-01-16T07:38:27;-0.70;95.40
1359;DHT22;673;48.098;14.422;2024-01-16T07:40:54;-0.60;95.70
1359;DHT22;673;48.098;14.422;2024-01-16T07:43:21;-0.50;95.50
1359;DHT22;673;48.098;14.422;2024-01-16T07:45:49;-0.40;95.30
1359;DHT22;673;48.098;14.422;2024-01-16T07:48:16;-0.40;95.40
1359;DHT22;673;48.098;14.422;2024-01-16T07:50:44;-0.30;94.80
1359;DHT22;673;48.098;14.422;2024-01-16T07:53:12;-0.30;95.00
1359;DHT22;673;48.098;14.422;2024-01-16T07:55:39;-0.20;95.00
1359;DHT22;673;48.098;14.422;2024-01-16T07:58:05;-0.20;95.10
1359;DHT22;673;48.098;14.422;2024-01-16T08:00:32;-0.10;94.70
1359;DHT22;673;48.098;14.422;2024-01-16T08:02:59;-0.20;94.80
1359;DHT22;673;48.098;14.422;2024-01-16T08:05:26;-0.20;94.90
1359;DHT22;673;48.098;14.422;2024-01-16T08:07:57;-0.30;94.60
1359;DHT22;673;48.098;14.422;2024-01-16T08:10:24;-0.30;95.00
1359;DHT22;673;48.098;14.422;2024-01-16T08:12:51;-0.30;94.70
1359;DHT22;673;48.098;14.422;2024-01-16T08:15:18;-0.20;94.60
1359;DHT22;673;48.098;14.422;2024-01-16T08:17:45;-0.20;94.50
1359;DHT22;673;48.098;14.422;2024-01-16T08:20:12;-0.10;94.10
1359;DHT22;673;48.098;14.422;2024-01-16T08:22:39;-0.10;93.50
1359;DHT22;673;48.098;14.422;2024-01-16T08:25:08;0.00;94.00
1359;DHT22;673;48.098;14.422;2024-01-16T08:27:35;0.00;93.20
1359;DHT22;673;48.098;14.422;2024-01-16T08:30:03;0.00;93.50
1359;DHT22;673;48.098;14.422;2024-01-16T08:32:31;0.10;93.70
1359;DHT22;673;48.098;14.422;2024-01-16T08:34:58;0.10;93.30
1359;DHT22;673;48.098;14.422;2024-01-16T08:37:25;0.10;93.40
1359;DHT22;673;48.098;14.422;2024-01-16T08:39:52;0.20;93.00
1359;DHT22;673;48.098;14.422;2024-01-16T08:42:20;0.30;93.60
1359;DHT22;673;48.098;14.422;2024-01-16T08:44:47;0.30;92.70
1359;DHT22;673;48.098;14.422;2024-01-16T08:47:14;0.30;93.10
1359;DHT22;673;48.098;14.422;2024-01-16T08:49:41;0.30;92.60
1359;DHT22;673;48.098;14.422;2024-01-16T08:52:09;0.30;92.50
1359;DHT22;673;48.098;14.422;2024-01-16T08:54:36;0.20;91.90
1359;DHT22;673;48.098;14.422;2024-01-16T08:57:03;0.30;92.70
1359;DHT22;673;48.098;14.422;2024-01-16T08:59:32;0.40;92.60
1359;DHT22;673;48.098;14.422;2024-01-16T09:01:59;0.50;92.70
1359;DHT22;673;48.098;14.422;2024-01-16T09:04:26;0.60;91.90
1359;DHT22;673;48.098;14.422;2024-01-16T09:06:53;0.80;91.80
1359;DHT22;673;48.098;14.422;2024-01-16T09:09:20;0.80;90.40
1359;DHT22;673;48.098;14.422;2024-01-16T09:11:47;0.90;90.50
1359;DHT22;673;48.098;14.422;2024-01-16T09:14:14;0.90;90.50
1359;DHT22;673;48.098;14.422;2024-01-16T09:16:42;0.90;91.40
1359;DHT22;673;48.098;14.422;2024-01-16T09:19:09;0.90;90.50
1359;DHT22;673;48.098;14.422;2024-01-16T09:21:36;0.90;90.50
1359;DHT22;673;48.098;14.422;2024-01-16T09:24:03;0.90;90.30
1359;DHT22;673;48.098;14.422;2024-01-16T09:26:30;0.90;88.70
1359;DHT22;673;48.098;14.422;2024-01-16T09:28:58;1.00;88.50
1359;DHT22;673;48.098;14.422;2024-01-16T09:31:25;1.00;90.50
1359;DHT22;673;48.098;14.422;2024-01-16T09:33:54;1.00;87.90
1359;DHT22;673;48.098;14.422;2024-01-16T09:36:21;1.10;87.90
1359;DHT22;673;48.098;14.422;2024-01-16T09:38:48;1.30;88.70
1359;DHT22;673;48.098;14.422;2024-01-16T09:41:14;1.20;86.20
1359;DHT22;673;48.098;14.422;2024-01-16T09:43:42;1.30;86.70
1359;DHT22;673;48.098;14.422;2024-01-16T09:46:11;1.40;87.60
1359;DHT22;673;48.098;14.422;2024-01-16T09:48:38;1.40;85.70
1359;DHT22;673;48.098;14.422;2024-01-16T09:51:08;1.50;86.30
1359;DHT22;673;48.098;14.422;2024-01-16T09:53:35;1.40;85.50
1359;DHT22;673;48.098;14.422;2024-01-16T09:56:03;1.40;86.90
1359;DHT22;673;48.098;14.422;2024-01-16T09:58:34;1.40;85.60
1359;DHT22;673;48.098;14.422;2024-01-16T10:01:04;1.30;85.90
1359;DHT22;673;48.098;14.422;2024-01-16T10:03:31;1.50;85.90
1359;DHT22;673;48.098;14.422;2024-01-16T10:06:02;1.40;82.80
1359;DHT22;673;48.098;14.422;2024-01-16T10:08:33;1.60;85.70
1359;DHT22;673;48.098;14.422;2024-01-16T10:11:00;1.80;82.10
1359;DHT22;673;48.098;14.422;2024-01-16T10:13:27;1.70;81.20
1359;DHT22;673;48.098;14.422;2024-01-16T10:15:55;1.70;80.80
1359;DHT22;673;48.098;14.422;2024-01-16T10:18:22;1.80;79.50
1359;DHT22;673;48.098;14.422;2024-01-16T10:20:50;1.90;79.60
1359;DHT22;673;48.098;14.422;2024-01-16T10:23:23;1.90;78.90
1359;DHT22;673;48.098;14.422;2024-01-16T10:28:45;2.10;81.00
1359;DHT22;673;48.098;14.422;2024-01-16T10:31:13;1.90;78.60
1359;DHT22;673;48.098;14.422;2024-01-16T10:33:40;1.80;78.80
1359;DHT22;673;48.098;14.422;2024-01-16T10:36:09;1.90;81.40
1359;DHT22;673;48.098;14.422;2024-01-16T10:38:37;1.90;79.80
1359;DHT22;673;48.098;14.422;2024-01-16T10:41:09;1.90;78.60
1359;DHT22;673;48.098;14.422;2024-01-16T10:43:37;1.80;77.40
1359;DHT22;673;48.098;14.422;2024-01-16T10:46:09;2.00;82.20
1359;DHT22;673;48.098;14.422;2024-01-16T10:48:38;1.90;82.00
1359;DHT22;673;48.098;14.422;2024-01-16T10:51:06;2.00;84.30
1359;DHT22;673;48.098;14.422;2024-01-16T10:53:34;2.20;83.50
1359;DHT22;673;48.098;14.422;2024-01-16T10:56:02;2.10;80.30
1359;DHT22;673;48.098;14.422;2024-01-16T10:58:32;2.30;80.00
1359;DHT22;673;48.098;14.422;2024-01-16T11:01:02;2.20;78.90
1359;DHT22;673;48.098;14.422;2024-01-16T11:03:35;2.30;81.00
1359;DHT22;673;48.098;14.422;2024-01-16T11:06:06;2.30;79.00
1359;DHT22;673;48.098;14.422;2024-01-16T11:08:35;2.40;78.70
1359;DHT22;673;48.098;14.422;2024-01-16T11:11:04;2.30;77.10
1359;DHT22;673;48.098;14.422;2024-01-16T11:13:32;2.30;75.40
1359;DHT22;673;48.098;14.422;2024-01-16T11:16:01;2.50;77.30
1359;DHT22;673;48.098;14.422;2024-01-16T11:18:30;2.70;77.10
1359;DHT22;673;48.098;14.422;2024-01-16T11:20:59;2.90;75.50
1359;DHT22;673;48.098;14.422;2024-01-16T11:23:27;2.90;72.80
1359;DHT22;673;48.098;14.422;2024-01-16T11:25:54;2.90;75.50
1359;DHT22;673;48.098;14.422;2024-01-16T11:28:27;2.90;76.10
1359;DHT22;673;48.098;14.422;2024-01-16T11:30:55;2.80;71.60
1359;DHT22;673;48.098;14.422;2024-01-16T11:33:43;2.50;72.50
1359;DHT22;673;48.098;14.422;2024-01-16T11:36:45;2.40;73.60
1359;DHT22;673;48.098;14.422;2024-01-16T11:39:17;2.40;73.70
1359;DHT22;673;48.098;14.422;2024-01-16T11:41:49;2.50;76.40
1359;DHT22;673;48.098;14.422;2024-01-16T11:44:41;2.50;74.40
1359;DHT22;673;48.098;14.422;2024-01-16T11:47:08;2.50;73.60
1359;DHT22;673;48.098;14.422;2024-01-16T11:49:36;2.50;76.30
1359;DHT22;673;48.098;14.422;2024-01-16T11:52:04;2.60;75.80
1359;DHT22;673;48.098;14.422;2024-01-16T11:54:33;2.80;78.80
1359;DHT22;673;48.098;14.422;2024-01-16T12:00:00;2.90;70.80
1359;DHT22;673;48.098;14.422;2024-01-16T12:02:46;2.80;73.10
1359;DHT22;673;48.098;14.422;2024-01-16T12:05:15;2.90;69.70
1359;DHT22;673;48.098;14.422;2024-01-16T12:07:47;2.80;68.80
1359;DHT22;673;48.098;14.422;2024-01-16T12:10:16;2.90;69.80
1359;DHT22;673;48.098;14.422;2024-01-16T12:12:43;2.70;67.90
1359;DHT22;673;48.098;14.422;2024-01-16T12:15:14;2.70;67.70
1359;DHT22;673;48.098;14.422;2024-01-16T12:17:58;2.70;67.20
1359;DHT22;673;48.098;14.422;2024-01-16T12:20:27;2.60;66.70
1359;DHT22;673;48.098;14.422;2024-01-16T12:23:00;2.60;68.60
1359;DHT22;673;48.098;14.422;2024-01-16T12:25:29;2.70;70.80
1359;DHT22;673;48.098;14.422;2024-01-16T12:27:58;2.60;70.80
1359;DHT22;673;48.098;14.422;2024-01-16T12:30:26;2.80;72.80
1359;DHT22;673;48.098;14.422;2024-01-16T12:33:03;2.80;66.60
1359;DHT22;673;48.098;14.422;2024-01-16T12:35:31;2.60;64.60
1359;DHT22;673;48.098;14.422;2024-01-16T12:38:01;2.60;63.80
1359;DHT22;673;48.098;14.422;2024-01-16T12:40:28;2.70;65.00
1359;DHT22;673;48.098;14.422;2024-01-16T12:42:55;2.70;65.80
1359;DHT22;673;48.098;14.422;2024-01-16T12:45:23;2.70;65.00
1359;DHT22;673;48.098;14.422;2024-01-16T12:47:53;2.70;66.30
1359;DHT22;673;48.098;14.422;2024-01-16T12:50:21;2.70;65.80
1359;DHT22;673;48.098;14.422;2024-01-16T12:52:49;2.60;64.80
1359;DHT22;673;48.098;14.422;2024-01-16T12:55:17;2.70;66.40
1359;DHT22;673;48.098;14.422;2024-01-16T12:57:45;2.60;64.10
1359;DHT22;673;48.098;14.422;2024-01-16T13:00:23;2.60;64.30
1359;DHT22;673;48.098;14.422;2024-01-16T13:02:51;2.70;64.00
1359;DHT22;673;48.098;14.422;2024-01-16T13:05:18;2.90;64.50
1359;DHT22;673;48.098;14.422;2024-01-16T13:07:45;2.90;59.60
1359;DHT22;673;48.098;14.422;2024-01-16T13:10:13;3.00;60.20
1359;DHT22;673;48.098;14.422;2024-01-16T13:12:45;3.00;59.80
1359;DHT22;673;48.098;14.422;2024-01-16T13:15:12;3.00;59.00
1359;DHT22;673;48.098;14.422;2024-01-16T13:17:42;2.90;59.40
1359;DHT22;673;48.098;14.422;2024-01-16T13:20:10;2.70;58.20
1359;DHT22;673;48.098;14.422;2024-01-16T13:22:38;2.70;60.90
1359;DHT22;673;48.098;14.422;2024-01-16T13:25:06;2.60;62.90
1359;DHT22;673;48.098;14.422;2024-01-16T13:27:33;2.60;68.20
1359;DHT22;673;48.098;14.422;2024-01-16T13:30:01;2.40;72.20
1359;DHT22;673;48.098;14.422;2024-01-16T13:32:28;2.30;73.30
1359;DHT22;673;48.098;14.422;2024-01-16T13:34:55;2.20;73.60
1359;DHT22;673;48.098;14.422;2024-01-16T13:37:22;2.10;73.30
1359;DHT22;673;48.098;14.422;2024-01-16T13:39:49;2.20;74.40
1359;DHT22;673;48.098;14.422;2024-01-16T13:42:17;2.10;72.60
1359;DHT22;673;48.098;14.422;2024-01-16T13:44:45;2.20;73.90
1359;DHT22;673;48.098;14.422;2024-01-16T13:47:15;2.30;72.70
1359;DHT22;673;48.098;14.422;2024-01-16T13:49:44;2.20;72.80
1359;DHT22;673;48.098;14.422;2024-01-16T13:52:11;2.30;71.00
1359;DHT22;673;48.098;14.422;2024-01-16T13:54:38;2.20;71.00
1359;DHT22;673;48.098;14.422;2024-01-16T13:57:06;2.30;71.40
1359;DHT22;673;48.098;14.422;2024-01-16T13:59:33;2.40;72.00
1359;DHT22;673;48.098;14.422;2024-01-16T14:02:01;2.50;73.50
1359;DHT22;673;48.098;14.422;2024-01-16T14:04:29;2.40;76.20
1359;DHT22;673;48.098;14.422;2024-01-16T14:06:56;2.30;78.40
1359;DHT22;673;48.098;14.422;2024-01-16T14:09:23;2.00;79.60
1359;DHT22;673;48.098;14.422;2024-01-16T14:11:50;2.10;81.10
1359;DHT22;673;48.098;14.422;2024-01-16T14:14:17;2.00;80.50
1359;DHT22;673;48.098;14.422;2024-01-16T14:16:44;1.70;81.20
1359;DHT22;673;48.098;14.422;2024-01-16T14:19:15;1.60;82.30
1359;DHT22;673;48.098;14.422;2024-01-16T14:21:43;1.60;83.60
1359;DHT22;673;48.098;14.422;2024-01-16T14:24:10;1.50;83.60
1359;DHT22;673;48.098;14.422;2024-01-16T14:26:37;1.40;83.50
1359;DHT22;673;48.098;14.422;2024-01-16T14:29:04;1.40;82.80
1359;DHT22;673;48.098;14.422;2024-01-16T14:31:31;1.30;82.20
1359;DHT22;673;48.098;14.422;2024-01-16T14:33:58;1.40;82.60
1359;DHT22;673;48.098;14.422;2024-01-16T14:36:25;1.30;83.80
1359;DHT22;673;48.098;14.422;2024-01-16T14:38:53;1.20;86.00
1359;DHT22;673;48.098;14.422;2024-01-16T14:41:20;1.20;83.90
1359;DHT22;673;48.098;14.422;2024-01-16T14:43:48;1.10;85.70
1359;DHT22;673;48.098;14.422;2024-01-16T14:46:15;1.10;85.80
1359;DHT22;673;48.098;14.422;2024-01-16T14:48:43;1.10;87.40
1359;DHT22;673;48.098;14.422;2024-01-16T14:51:11;0.90;86.60
1359;DHT22;673;48.098;14.422;2024-01-16T14:53:38;0.90;87.10
1359;DHT22;673;48.098;14.422;2024-01-16T14:56:06;0.90;87.50
1359;DHT22;673;48.098;14.422;2024-01-16T14:58:33;0.80;88.30
1359;DHT22;673;48.098;14.422;2024-01-16T15:01:00;0.90;88.90
1359;DHT22;673;48.098;14.422;2024-01-16T15:03:27;1.00;89.00
1359;DHT22;673;48.098;14.422;2024-01-16T15:05:54;0.90;89.70
1359;DHT22;673;48.098;14.422;2024-01-16T15:08:21;0.80;90.00
1359;DHT22;673;48.098;14.422;2024-01-16T15:10:48;0.70;90.90
1359;DHT22;673;48.098;14.422;2024-01-16T15:13:18;0.60;90.60
1359;DHT22;673;48.098;14.422;2024-01-16T15:15:46;0.50;91.40
1359;DHT22;673;48.098;14.422;2024-01-16T15:18:12;0.40;91.40
1359;DHT22;673;48.098;14.422;2024-01-16T15:20:40;0.30;91.60
1359;DHT22;673;48.098;14.422;2024-01-16T15:23:07;0.40;91.90
1359;DHT22;673;48.098;14.422;2024-01-16T15:25:34;0.30;91.90
1359;DHT22;673;48.098;14.422;2024-01-16T15:28:01;0.20;92.00
1359;DHT22;673;48.098;14.422;2024-01-16T15:30:30;0.20;91.80
1359;DHT22;673;48.098;14.422;2024-01-16T15:32:58;0.20;91.70
1359;DHT22;673;48.098;14.422;2024-01-16T15:35:25;0.00;92.10
1359;DHT22;673;48.098;14.422;2024-01-16T15:37:52;0.00;92.50
1359;DHT22;673;48.098;14.422;2024-01-16T15:40:20;-0.10;92.60
1359;DHT22;673;48.098;14.422;2024-01-16T15:42:48;-0.10;92.80
1359;DHT22;673;48.098;14.422;2024-01-16T15:45:15;-0.10;93.00
1359;DHT22;673;48.098;14.422;2024-01-16T15:47:43;-0.20;93.10
1359;DHT22;673;48.098;14.422;2024-01-16T15:50:10;-0.20;93.40
1359;DHT22;673;48.098;14.422;2024-01-16T15:52:37;-0.40;94.00
1359;DHT22;673;48.098;14.422;2024-01-16T15:55:04;-0.40;94.40
1359;DHT22;673;48.098;14.422;2024-01-16T15:57:31;-0.40;94.40
1359;DHT22;673;48.098;14.422;2024-01-16T15:59:58;-0.50;95.10
1359;DHT22;673;48.098;14.422;2024-01-16T16:02:25;-0.60;95.60
1359;DHT22;673;48.098;14.422;2024-01-16T16:04:54;-0.60;95.60
1359;DHT22;673;48.098;14.422;2024-01-16T16:07:21;-0.60;95.60
1359;DHT22;673;48.098;14.422;2024-01-16T16:09:48;-0.60;95.40
1359;DHT22;673;48.098;14.422;2024-01-16T16:12:15;-0.50;95.00
1359;DHT22;673;48.098;14.422;2024-01-16T16:14:42;-0.40;94.80
1359;DHT22;673;48.098;14.422;2024-01-16T16:17:09;-0.50;94.90
1359;DHT22;673;48.098;14.422;2024-01-16T16:19:36;-0.60;96.00